Questo sito fa uso di cookie per migliorare l’esperienza di navigazione degli utenti e per raccogliere informazioni sull’utilizzo del sito stesso. Proseguendo nella navigazione si accetta l’uso dei cookie; in caso contrario è possibile abbandonare il sito.

[source: ADDS]
METAR
TAF LIPA 272000Z 2721/2806 VRB03KT 3000 BR SCT010 BKN020 TEMPO 2723/2803 1200 DZ BR OVC008 LIPB 272150Z 14002KT 9999 BKN060 03/00 Q1014 RMK MON INVIS =
TAF LIPB 271700Z 2718/2818 VRB03KT 9999 SCT060 BECMG 2812/2815 35010KT LIPC 280255Z 16003KT 9999 SCT050 08/06 Q1012 RMK BKN SCT100 VIS MIN 9999 WIND THR11 /////KT WIND THR29 17004KT BLU =
TAF LIPC 280200Z 2803/2812 18005KT 6000 FEW020 SCT050 PROB40 TEMPO 2804/2807 3000 BR BKN040 LIPE 280320Z VRB01KT 0050 R12/0300D R30/0175N FG VV001 03/03 Q1010 =
TAF LIPE 272300Z 2800/2824 VRB04KT 3000 BR NSC TEMPO 2800/2806 0600 FG BKN008 BECMG 2807/2809 19010KT 8000 BECMG 2816/2818 VRB05KT LIPH 280320Z AUTO 05003KT 1000 R07/P1500N -RA BR OVC014/// 06/06 Q1011 =
TAF LIPH 272300Z 2800/2824 VRB02KT 0200 FG BKN002 TEMPO 2800/2806 1000 RA BR BKN004 BECMG 2807/2810 3000 BR SCT020 BECMG 2812/2815 24010KT 8000 LIPL 280255Z 05005KT 2500 BR FEW015 BKN040 06/05 Q1011 RMK BKN VIS MIN 2500 WIND THR31 /////KT WIND THR13 07005KT YLO =
TAF LIPL 280200Z 2803/2812 07004KT 2000 RA BR BKN030 PROB30 TEMPO 2804/2808 0600 FG BKN003 LIPO 280250Z 02006KT 6000 BKN050 07/06 Q1012 =
TAF LIPO 272300Z 2800/2824 VRB05KT 4000 BR SCT015 BKN040 TEMPO 2800/2803 RA PROB30 TEMPO 2804/2808 0900 FG BKN010 LIPQ 280320Z AUTO 01004KT 2800 -RA BR OVC010/// 07/07 Q1011 =
TAF LIPQ 272300Z 2800/2824 VRB04KT 3000 BR FEW020 TEMPO 2800/2812 1000 RA BR BECMG 2812/2814 8000 LIPR 280320Z AUTO 17005KT 9999 FEW120/// BKN140/// 11/05 Q1013 =
TAF LIPR 280200Z 2803/2812 VRB05KT 8000 FEW020 TEMPO 2803/2806 2000 BR BECMG 2807/2810 23010KT LIPS 280255Z /////KT 1200 -RA BR SCT018 BKN040 06/05 Q1012 RMK OVC VIS MIN 1200 WIND THR26 03004KT WIND THR08 06003KT AMB =
TAF LIPS 280200Z 2803/2812 03003KT 0500 FG OVC003 TEMPO 2801/2808 1000 RA BR BKN025 LIPX 280320Z VRB02KT 2500 -RA BR BKN040 06/05 Q1011 =
TAF LIPX 280200Z 2803/2812 VRB05KT 3000 BR BKN050 TEMPO 2803/2806 RA LIPY 280250Z AUTO 15004KT 9999 OVC110/// 09/06 Q1013 =
TAF LIPY 272300Z 2800/2824 VRB04KT 8000 SCT020 TEMPO 2800/2806 1500 BR BECMG 2806/2808 24013KT LIPZ 280320Z 03004KT 1500 -RA BR SCT013 BKN050 05/05 Q1011 NOSIG =
TAF LIPZ 272300Z 2800/2906 VRB04KT 0200 FG BKN004 TEMPO 2800/2808 1000 RA BR BECMG 2810/2812 3000 BR SCT020 BECMG 2812/2815 24010KT 8000 BECMG 2820/2822 VRB05KT 3000 BR LIVE 280255Z 20005KT CAVOK M02/M02 Q1007 RMK OVC OVC080 VIS MIN 9999 =
LIVF 280255Z 25011KT 9999 SCT020 08/04 Q1011 RMK OVC BKN220 MON S W CIME INC NC VAL NIL VIS MIN 9999 =
LIVM 280255Z AUTO VRB03KT //// 10/06 Q1013 =
LIVP 280255Z 24025KT 0000 FZFG VV/// M04/M04 Q1005 RMK MON INVIS VAL INVIS VIS MIN 0000 =
LIVR 280255Z 14013KT 0100 FZFG VV/// M03/M05 Q1005 RMK MON INVIS VIS MIN 0100 =
LIMC 280320Z 35006KT 5000 BR BKN010 05/05 Q1011 NOSIG =
TAF LIMC 272300Z 2800/2906 VRB05KT 6000 SCT015 BKN040 TEMPO 2800/2809 3000 RA LIME 280320Z 07004KT 4000 -RA BR BKN035 06/06 Q1010 NOSIG =
TAF LIME 272300Z 2800/2824 VRB05KT 5000 BR SCT015 BKN040 TEMPO 2800/2804 RA PROB30 TEMPO 2804/2808 0900 FG BKN010 LIMF 280320Z 31003KT 5000 BR OVC014 05/03 Q1011 =
TAF LIMF 272300Z 2800/2824 VRB05KT 3000 BR SCT040 PROB40 TEMPO 2803/2808 0800 FG BKN008 LIMH 280255Z 21017G27KT 0100 -SN FZFG VV/// M11/M12 Q1004 RMK MON INVIS VAL INVIS VIS MIN 0100 =
LIMJ 280320Z 17010KT 9999 BKN016 BKN025 13/10 Q1011 =
TAF LIMJ 272300Z 2800/2824 15016KT 9999 BKN020 BKN050 TEMPO 2800/2806 22015G30KT RA LIMK 280255Z 00000KT 5000 BR SCT025 03/03 Q1009 RMK OVC BKN080 VAL FOSCHIA VIS MIN 5000 =
LIML 280320Z 14004KT 090V170 4000 BR BKN015 BKN035 07/06 Q1011 NOSIG =
TAF LIML 272300Z 2800/2824 VRB05KT 5000 BR SCT015 BKN040 TEMPO 2800/2804 RA PROB40 TEMPO 2804/2808 0800 FG BKN010 TAF LIMN 271700Z 2718/2803 VRB03KT 4000 BR BKN030 BECMG 2718/2720 2000 BR BKN015 PROB40 TEMPO 2720/2724 1200 RA BR BKN010 LIMU 280255Z 24030G40KT 9999 BKN015 BKN025 10/09 Q1010 RMK OVC QUK / QUL / VIS MAR 20 KM VIS MIN 9999 =
TAF
TAF LIPA 272000Z 2721/2806 VRB03KT 3000 BR SCT010 BKN020 TEMPO 2723/2803 1200 DZ BR OVC008 =
TAF LIPB 271700Z 2718/2818 VRB03KT 9999 SCT060 BECMG 2812/2815 35010KT =
TAF LIPC 280200Z 2803/2812 18005KT 6000 FEW020 SCT050 PROB40 TEMPO 2804/2807 3000 BR BKN040 =
TAF LIPE 272300Z 2800/2824 VRB04KT 3000 BR NSC TEMPO 2800/2806 0600 FG BKN008 BECMG 2807/2809 19010KT 8000 BECMG 2816/2818 VRB05KT =
TAF LIPH 272300Z 2800/2824 VRB02KT 0200 FG BKN002 TEMPO 2800/2806 1000 RA BR BKN004 BECMG 2807/2810 3000 BR SCT020 BECMG 2812/2815 24010KT 8000 =
TAF LIPL 280200Z 2803/2812 07004KT 2000 RA BR BKN030 PROB30 TEMPO 2804/2808 0600 FG BKN003 =
TAF LIPO 272300Z 2800/2824 VRB05KT 4000 BR SCT015 BKN040 TEMPO 2800/2803 RA PROB30 TEMPO 2804/2808 0900 FG BKN010 =
TAF LIPQ 272300Z 2800/2824 VRB04KT 3000 BR FEW020 TEMPO 2800/2812 1000 RA BR BECMG 2812/2814 8000 =
TAF LIPR 280200Z 2803/2812 VRB05KT 8000 FEW020 TEMPO 2803/2806 2000 BR BECMG 2807/2810 23010KT =
TAF LIPS 280200Z 2803/2812 03003KT 0500 FG OVC003 TEMPO 2801/2808 1000 RA BR BKN025 =
TAF LIPX 280200Z 2803/2812 VRB05KT 3000 BR BKN050 TEMPO 2803/2806 RA =
TAF LIPY 272300Z 2800/2824 VRB04KT 8000 SCT020 TEMPO 2800/2806 1500 BR BECMG 2806/2808 24013KT =
TAF LIPZ 272300Z 2800/2906 VRB04KT 0200 FG BKN004 TEMPO 2800/2808 1000 RA BR BECMG 2810/2812 3000 BR SCT020 BECMG 2812/2815 24010KT 8000 BECMG 2820/2822 VRB05KT 3000 BR =
TAF LIMC 272300Z 2800/2906 VRB05KT 6000 SCT015 BKN040 TEMPO 2800/2809 3000 RA =
TAF LIME 272300Z 2800/2824 VRB05KT 5000 BR SCT015 BKN040 TEMPO 2800/2804 RA PROB30 TEMPO 2804/2808 0900 FG BKN010 =
TAF LIMF 272300Z 2800/2824 VRB05KT 3000 BR SCT040 PROB40 TEMPO 2803/2808 0800 FG BKN008 =
TAF LIMJ 272300Z 2800/2824 15016KT 9999 BKN020 BKN050 TEMPO 2800/2806 22015G30KT RA =
TAF LIML 272300Z 2800/2824 VRB05KT 5000 BR SCT015 BKN040 TEMPO 2800/2804 RA PROB40 TEMPO 2804/2808 0800 FG BKN010 =
TAF LIMN 271700Z 2718/2803 VRB03KT 4000 BR BKN030 BECMG 2718/2720 2000 BR BKN015 PROB40 TEMPO 2720/2724 1200 RA BR BKN010 =
SR / SS: 06:37 / 16:13 UTC (Effemeridi Aeroporto di Padova - LIPU 2020-01-28)

Immagini e previsioni meteo non aeronautiche

 

 

 

Immagini dal Radar Meteorologico del sito ARPAV. Orario UTC.

 

Immagine dal sito Meteo Sat Online

 

Legenda codici ICAO del nord Italia

 

In ordine di codice   In ordine di località
LIMC
Milano / Malpensa LIMG Albenga
LIME Bergamo / Orio Al Serio LIPA Aviano
LIMF Torino / Caselle LIME Bergamo / Orio Al Serio
LIMG Albenga LIPE Bologna / Borgo Panigale
LIMH Pian Rosa LIPB Bolzano
LIMJ Genova / Sestri LIPL Brescia / Ghedi
LIMK Torino / Bric Della Croce LIPO Brescia / Montichiari
LIML Milano / Linate LIMU Capo Mele
LIMN Novara / Cameri LIPC Cervia
LIMO Monte Bisbino LIVD Dobbiaco
LIMS Piacenza LIPP Dova Area Control Center
LIMT Passo Della Cisa LIPY Falconara
LIMU Capo Mele LIPF Ferrara
LIMV Passo Dei Giovi LIPK Forli
LIMY Monte Malanotte LIVF Frontone
LIPA Aviano LIMJ Genova / Sestri
LIPB Bolzano LIML Milano / Linate
LIPC Cervia
LIMC
Milano / Malpensa
LIPD Udine / Campoformido LIMO Monte Bisbino
LIPE Bologna / Borgo Panigale LIVC Monte Cimone
LIPF Ferrara LIMY Monte Malanotte
LIPH Treviso / S. Angelo LIMN Novara / Cameri
LIPI Udine / Rivolto LIPU Padova
LIPK Forli LIVP Paganella
LIPL Brescia / Ghedi LIMV Passo Dei Giovi
LIPO Brescia / Montichiari LIMT Passo Della Cisa
LIPP Dova Area Control Center LIVR Passo Rolle
LIPQ Ronchi Dei Legionari LIMS Piacenza
LIPR Rimini LIMH Pian Rosa
LIPS Treviso / Istrana LIVM Punta Marina
LIPT Vicenza LIVE Resia Pass
LIPU Padova LIPR Rimini
LIPX Verona / Villafranca LIPQ Ronchi Dei Legionari
LIPY Falconara LIVO Tarvisio
LIPZ Venezia / Tessera LIMK Torino / Bric Della Croce
LIVC Monte Cimone LIMF Torino / Caselle
LIVD Dobbiaco LIPS Treviso / Istrana
LIVE Resia Pass LIPH Treviso / S. Angelo
LIVF Frontone LIVT
Trieste
LIVM Punta Marina LIPD Udine / Campoformido
LIVO Tarvisio LIPI Udine / Rivolto
LIVP Paganella LIPZ Venezia / Tessera
LIVR Passo Rolle LIPX Verona / Villafranca
LIVT Trieste LIPT Vicenza

 

 

 

 

 

 

 

 

 

 

 

 

 

 

 

 

 

 

 

 

 

 

 

 

 

 

 

 

 

 

 

 

 

 

 

 

 

 

 

 

 

 

 

 

 

 

 

 

 

 

 

 

 

 

 

 

 

 

 

 

L'Aeroclub di Padova si limita a riportare informazioni fornite da terze parti, e non ha quindi alcuna responsabilità sul contenuto. Per la pianificazione dei propri voli si raccomanda l'utilizzo delle fonti ufficiali.

Copyright 2011. Free joomla templates | © Aeroclub Padova - Scuola di Volo, Ditta di manutenzione, CAMO Via Sorio, 89 - 35141 Padova Tel. 049 8718599 Fax 049 8717699 info@aeroclubpadova.it